Time;durP1;ratioP1;P1;durP2;ratioP2;P2;SDS_P1;SDS_P2;PMS_P1;PMS_P2;Temp;Humidity;BMP_temperature;BMP_pressure;BME280_temperature;BME280_humidity;BME280_pressure;Samples;Min_cycle;Max_cycle;Signal;HPM_P1;HPM_P2
2023/06/22 00:01:45;;;;;;;9.70;5.30;;;;;;;;;;7332672;19;20276;-77
2023/06/22 00:04:10;;;;;;;8.37;5.00;;;;;;;;;;7345176;19;20033;-77
2023/06/22 00:06:35;;;;;;;8.30;5.40;;;;;;;;;;7276159;19;20328;-77
2023/06/22 00:09:01;;;;;;;8.83;5.00;;;;;;;;;;7332732;19;20109;-77
2023/06/22 00:11:27;;;;;;;9.20;5.07;;;;;;;;;;7346445;19;20811;-77
2023/06/22 00:13:52;;;;;;;8.68;5.15;;;;;;;;;;7337933;19;20011;-77
2023/06/22 00:16:18;;;;;;;9.73;5.20;;;;;;;;;;7341937;19;20021;-77
2023/06/22 00:18:46;;;;;;;9.02;4.97;;;;;;;;;;7352347;19;21417;-77
2023/06/22 00:21:12;;;;;;;10.45;5.32;;;;;;;;;;7327277;19;20546;-77
2023/06/22 00:23:37;;;;;;;6.72;4.55;;;;;;;;;;7340061;19;20005;-77
2023/06/22 00:26:02;;;;;;;8.17;4.30;;;;;;;;;;7351110;19;20014;-77
2023/06/22 00:28:28;;;;;;;7.63;4.90;;;;;;;;;;7343874;19;20697;-77
2023/06/22 00:30:53;;;;;;;9.48;4.93;;;;;;;;;;7353258;19;21030;-77
2023/06/22 00:33:19;;;;;;;9.95;4.63;;;;;;;;;;7335548;19;20018;-77
2023/06/22 00:35:44;;;;;;;8.20;5.10;;;;;;;;;;7330984;19;20403;-77
2023/06/22 00:38:09;;;;;;;8.80;4.97;;;;;;;;;;7343123;19;20010;-77
2023/06/22 00:40:34;;;;;;;9.68;5.60;;;;;;;;;;7347435;19;20339;-77
2023/06/22 00:43:00;;;;;;;8.10;5.00;;;;;;;;;;7321473;19;20006;-78
2023/06/22 00:45:25;;;;;;;10.35;5.40;;;;;;;;;;7328449;19;20014;-77
2023/06/22 00:47:51;;;;;;;9.20;5.40;;;;;;;;;;7331169;19;20014;-77
2023/06/22 00:50:18;;;;;;;8.80;5.28;;;;;;;;;;7334439;19;20008;-76
2023/06/22 00:52:46;;;;;;;10.50;5.45;;;;;;;;;;7348717;19;20110;-77
2023/06/22 00:55:11;;;;;;;9.75;5.43;;;;;;;;;;7338563;19;20413;-78
2023/06/22 00:57:37;;;;;;;9.38;5.93;;;;;;;;;;7339492;19;20051;-78
2023/06/22 01:00:05;;;;;;;9.80;6.10;;;;;;;;;;7350530;19;20011;-78
2023/06/22 01:02:31;;;;;;;11.98;6.18;;;;;;;;;;7333340;19;20010;-77
2023/06/22 01:04:56;;;;;;;11.13;6.70;;;;;;;;;;7313023;19;20018;-77
2023/06/22 01:07:22;;;;;;;12.33;7.63;;;;;;;;;;7200166;19;20427;-78
2023/06/22 01:09:57;;;;;;;10.02;6.68;;;;;;;;;;7210007;19;22289;-78
2023/06/22 01:12:22;;;;;;;10.30;7.00;;;;;;;;;;7191889;19;20500;-78
2023/06/22 01:14:52;;;;;;;11.88;7.70;;;;;;;;;;7201910;19;20006;-77
2023/06/22 01:17:19;;;;;;;14.50;8.23;;;;;;;;;;7190591;19;20587;-78
2023/06/22 01:19:45;;;;;;;13.52;8.75;;;;;;;;;;7195288;19;20348;-77
2023/06/22 01:22:15;;;;;;;14.50;8.80;;;;;;;;;;7193006;19;20800;-78
2023/06/22 01:24:52;;;;;;;11.65;8.75;;;;;;;;;;7191459;19;20339;-78
2023/06/22 01:30:10;;;;;;;14.45;8.68;;;;;;;;;;7139070;19;20598;-77
2023/06/22 01:32:37;;;;;;;13.68;8.80;;;;;;;;;;7170971;19;20010;-77
2023/06/22 01:35:04;;;;;;;10.82;7.93;;;;;;;;;;7179594;19;20469;-77
2023/06/22 01:37:32;;;;;;;10.68;8.20;;;;;;;;;;7191367;19;20018;-77
2023/06/22 01:39:58;;;;;;;12.88;9.30;;;;;;;;;;7172150;19;20332;-77
2023/06/22 01:42:24;;;;;;;18.70;13.27;;;;;;;;;;7179739;19;20118;-77
2023/06/22 01:44:50;;;;;;;23.00;13.88;;;;;;;;;;7163856;19;20594;-78
2023/06/22 01:47:16;;;;;;;27.30;15.60;;;;;;;;;;7187592;19;20018;-79
2023/06/22 01:49:41;;;;;;;28.13;15.45;;;;;;;;;;7179787;19;20185;-79
2023/06/22 01:52:07;;;;;;;21.43;15.63;;;;;;;;;;7188582;19;21115;-79
2023/06/22 01:54:32;;;;;;;22.90;15.73;;;;;;;;;;7178330;19;20354;-79
2023/06/22 01:56:57;;;;;;;21.60;16.33;;;;;;;;;;7181964;19;19999;-78
2023/06/22 01:59:22;;;;;;;27.63;18.55;;;;;;;;;;7183677;19;20038;-78
2023/06/22 02:01:54;;;;;;;21.23;17.47;;;;;;;;;;7185097;19;20002;-78
2023/06/22 02:04:21;;;;;;;30.55;18.63;;;;;;;;;;7184730;19;20552;-78
2023/06/22 02:06:47;;;;;;;31.02;18.45;;;;;;;;;;7321494;19;20083;-78
2023/06/22 02:09:14;;;;;;;28.13;19.75;;;;;;;;;;7339404;19;20047;-77
2023/06/22 02:11:41;;;;;;;24.45;19.42;;;;;;;;;;7332899;19;20006;-77
2023/06/22 02:14:06;;;;;;;23.25;18.25;;;;;;;;;;7344550;19;20006;-78
2023/06/22 02:16:32;;;;;;;22.58;18.38;;;;;;;;;;7337686;19;20141;-78
2023/06/22 02:19:03;;;;;;;19.83;16.40;;;;;;;;;;7351109;19;20518;-78
2023/06/22 02:21:28;;;;;;;19.15;15.95;;;;;;;;;;7341188;19;21731;-78
2023/06/22 02:23:54;;;;;;;19.20;14.57;;;;;;;;;;7356405;19;20006;-78
2023/06/22 02:26:19;;;;;;;26.30;19.23;;;;;;;;;;7345503;19;20013;-78
2023/06/22 02:28:44;;;;;;;22.48;18.52;;;;;;;;;;7300280;19;20010;-78
2023/06/22 02:31:09;;;;;;;23.77;17.80;;;;;;;;;;7196503;19;21060;-78
2023/06/22 02:33:35;;;;;;;19.50;16.03;;;;;;;;;;7180180;19;21340;-78
2023/06/22 02:36:04;;;;;;;22.33;17.23;;;;;;;;;;7193314;19;20299;-78
2023/06/22 02:38:34;;;;;;;22.80;17.33;;;;;;;;;;7188105;19;20721;-78
2023/06/22 02:40:59;;;;;;;22.50;16.42;;;;;;;;;;7190085;19;20014;-77
2023/06/22 02:43:25;;;;;;;18.75;15.35;;;;;;;;;;7166051;19;21085;-78
2023/06/22 02:45:50;;;;;;;20.75;15.40;;;;;;;;;;7191368;19;20598;-77
2023/06/22 02:48:15;;;;;;;20.67;15.63;;;;;;;;;;7190150;19;20575;-78
2023/06/22 02:50:40;;;;;;;18.10;14.83;;;;;;;;;;7184093;19;20303;-77
2023/06/22 02:53:06;;;;;;;19.33;14.90;;;;;;;;;;7213558;19;20299;-78
2023/06/22 02:55:31;;;;;;;16.67;13.30;;;;;;;;;;7188965;19;19999;-77
2023/06/22 02:57:59;;;;;;;18.48;15.35;;;;;;;;;;7198429;19;20030;-78
2023/06/22 03:00:30;;;;;;;18.70;14.13;;;;;;;;;;7188884;19;20042;-79
2023/06/22 03:02:55;;;;;;;19.75;15.05;;;;;;;;;;7202007;19;20269;-78
2023/06/22 03:05:21;;;;;;;22.08;16.27;;;;;;;;;;7194938;19;20015;-78
2023/06/22 03:07:46;;;;;;;19.35;15.57;;;;;;;;;;7200116;19;21848;-78
2023/06/22 03:10:12;;;;;;;22.58;18.08;;;;;;;;;;7203561;19;20010;-79
2023/06/22 03:12:37;;;;;;;22.83;17.75;;;;;;;;;;7186863;19;20109;-77
2023/06/22 03:15:04;;;;;;;22.33;19.30;;;;;;;;;;7193463;19;20007;-78
2023/06/22 03:17:29;;;;;;;22.08;18.63;;;;;;;;;;7188972;19;20028;-78
2023/06/22 03:19:54;;;;;;;20.13;17.90;;;;;;;;;;7195982;19;20102;-78
2023/06/22 03:22:19;;;;;;;19.80;16.63;;;;;;;;;;7189361;19;20992;-78
2023/06/22 03:24:45;;;;;;;18.97;15.80;;;;;;;;;;7188993;19;20584;-78
2023/06/22 03:27:10;;;;;;;19.23;16.00;;;;;;;;;;7207956;19;20294;-78
2023/06/22 03:29:35;;;;;;;19.63;14.50;;;;;;;;;;7288256;19;20029;-80
2023/06/22 03:32:00;;;;;;;20.07;15.53;;;;;;;;;;7354637;19;20283;-79
2023/06/22 03:34:25;;;;;;;18.88;14.80;;;;;;;;;;7340238;19;20295;-78
2023/06/22 03:36:50;;;;;;;16.17;14.03;;;;;;;;;;7341362;19;20037;-80
2023/06/22 03:39:16;;;;;;;17.80;14.10;;;;;;;;;;7346155;19;20356;-80
2023/06/22 03:41:41;;;;;;;19.57;15.37;;;;;;;;;;7342284;19;20010;-80
2023/06/22 03:44:06;;;;;;;20.37;17.63;;;;;;;;;;7344233;19;20290;-79
2023/06/22 03:46:31;;;;;;;20.63;16.90;;;;;;;;;;7338150;19;20010;-78
2023/06/22 03:48:56;;;;;;;17.70;14.87;;;;;;;;;;7354136;19;20484;-80
2023/06/22 03:51:22;;;;;;;19.83;15.43;;;;;;;;;;7344416;19;20498;-79
2023/06/22 03:53:48;;;;;;;21.67;15.20;;;;;;;;;;7338270;19;20291;-80
2023/06/22 03:56:13;;;;;;;17.00;13.70;;;;;;;;;;7352167;19;20010;-80
2023/06/22 03:58:42;;;;;;;15.88;12.60;;;;;;;;;;7326122;19;20006;-79
2023/06/22 04:01:11;;;;;;;16.20;14.50;;;;;;;;;;7352321;19;20010;-80
2023/06/22 04:03:36;;;;;;;16.83;14.23;;;;;;;;;;7338617;19;20981;-80
2023/06/22 04:06:01;;;;;;;19.20;16.43;;;;;;;;;;7356104;19;20013;-81
2023/06/22 04:08:26;;;;;;;18.67;16.20;;;;;;;;;;7353170;19;20756;-80
2023/06/22 04:10:51;;;;;;;16.40;14.00;;;;;;;;;;7334971;19;20635;-80
2023/06/22 04:13:17;;;;;;;18.17;15.32;;;;;;;;;;7345813;19;20014;-80
2023/06/22 04:15:42;;;;;;;18.13;15.00;;;;;;;;;;7341609;19;20509;-79
2023/06/22 04:18:07;;;;;;;21.80;16.20;;;;;;;;;;7335874;19;20014;-80
2023/06/22 04:20:32;;;;;;;18.57;14.07;;;;;;;;;;7353298;19;20578;-79
2023/06/22 04:22:57;;;;;;;20.27;15.20;;;;;;;;;;7349991;19;20039;-80
2023/06/22 04:25:23;;;;;;;15.85;13.98;;;;;;;;;;7351661;19;20552;-79
2023/06/22 04:27:48;;;;;;;15.95;14.18;;;;;;;;;;7339099;19;20074;-80
2023/06/22 04:30:16;;;;;;;15.27;13.52;;;;;;;;;;7340088;19;20006;-81
2023/06/22 04:32:41;;;;;;;13.20;11.55;;;;;;;;;;7349654;19;20333;-80
2023/06/22 04:35:06;;;;;;;12.40;10.60;;;;;;;;;;7341375;19;20116;-80
2023/06/22 04:37:32;;;;;;;14.65;12.75;;;;;;;;;;7349248;19;20462;-84
2023/06/22 04:39:57;;;;;;;14.90;13.25;;;;;;;;;;7358557;19;20078;-80
2023/06/22 04:42:22;;;;;;;14.43;12.90;;;;;;;;;;7351538;19;20093;-82
2023/06/22 04:44:47;;;;;;;16.37;13.17;;;;;;;;;;7350248;19;20015;-82
2023/06/22 04:47:13;;;;;;;15.00;11.67;;;;;;;;;;7360001;19;20074;-82
2023/06/22 04:49:40;;;;;;;12.23;10.03;;;;;;;;;;7357099;19;20279;-84
2023/06/22 04:52:06;;;;;;;13.93;11.32;;;;;;;;;;7348739;19;21435;-85
2023/06/22 04:54:34;;;;;;;15.38;11.18;;;;;;;;;;7349024;19;20015;-81
2023/06/22 04:57:00;;;;;;;13.70;11.00;;;;;;;;;;7357904;19;20010;-84
2023/06/22 04:59:29;;;;;;;14.82;11.68;;;;;;;;;;7352440;19;20017;-84
2023/06/22 05:01:55;;;;;;;12.35;10.50;;;;;;;;;;7350936;19;20007;-82
2023/06/22 05:04:22;;;;;;;13.98;10.57;;;;;;;;;;7342845;19;20033;-79
2023/06/22 05:06:47;;;;;;;13.55;10.82;;;;;;;;;;7352687;19;20031;-85
2023/06/22 05:09:12;;;;;;;13.70;10.70;;;;;;;;;;7359130;19;20006;-84
2023/06/22 05:11:38;;;;;;;14.27;11.43;;;;;;;;;;7343844;19;20275;-81
2023/06/22 05:14:03;;;;;;;16.60;12.13;;;;;;;;;;7353019;19;20014;-83
2023/06/22 05:16:28;;;;;;;14.43;11.63;;;;;;;;;;7355088;19;20134;-82
2023/06/22 05:18:54;;;;;;;14.40;10.57;;;;;;;;;;7358688;19;20283;-86
2023/06/22 05:21:23;;;;;;;14.77;10.77;;;;;;;;;;7353780;19;20029;-80
2023/06/22 05:23:49;;;;;;;14.93;11.15;;;;;;;;;;7353454;19;20014;-82
2023/06/22 05:26:14;;;;;;;14.50;10.82;;;;;;;;;;7352176;19;20003;-82
2023/06/22 05:28:39;;;;;;;15.85;11.57;;;;;;;;;;7348086;19;20010;-83
2023/06/22 05:31:04;;;;;;;14.20;10.97;;;;;;;;;;7357408;19;20549;-82
2023/06/22 05:33:29;;;;;;;13.63;11.13;;;;;;;;;;7345974;19;20022;-84
2023/06/22 05:35:55;;;;;;;15.35;11.60;;;;;;;;;;7348880;19;20006;-80
2023/06/22 05:38:20;;;;;;;13.00;11.40;;;;;;;;;;7364667;19;20332;-87
2023/06/22 05:40:45;;;;;;;13.73;10.97;;;;;;;;;;7357514;19;20053;-85
2023/06/22 05:43:10;;;;;;;15.63;11.77;;;;;;;;;;7349758;19;20045;-83
2023/06/22 05:45:35;;;;;;;15.43;11.70;;;;;;;;;;7348720;19;20521;-80
2023/06/22 05:48:01;;;;;;;14.40;11.50;;;;;;;;;;7359766;19;20089;-85
2023/06/22 05:50:26;;;;;;;13.52;10.93;;;;;;;;;;7350849;19;20011;-83
2023/06/22 05:52:51;;;;;;;13.07;10.60;;;;;;;;;;7351523;19;20069;-83
2023/06/22 05:55:18;;;;;;;14.80;11.52;;;;;;;;;;7342706;19;20427;-82
2023/06/22 05:57:43;;;;;;;16.65;12.52;;;;;;;;;;7347669;19;20025;-79
2023/06/22 06:00:11;;;;;;;17.55;13.07;;;;;;;;;;7340782;19;20019;-81
2023/06/22 06:02:36;;;;;;;15.57;12.20;;;;;;;;;;7353387;19;20011;-82
2023/06/22 06:05:02;;;;;;;16.13;13.27;;;;;;;;;;7360732;19;20043;-84
2023/06/22 06:07:27;;;;;;;16.67;11.88;;;;;;;;;;7359076;19;20104;-83
2023/06/22 06:09:52;;;;;;;17.00;13.47;;;;;;;;;;7349225;19;20077;-83
2023/06/22 06:12:18;;;;;;;16.93;13.20;;;;;;;;;;7340440;19;20294;-82
2023/06/22 06:14:43;;;;;;;14.87;12.57;;;;;;;;;;7347924;19;20439;-80
2023/06/22 06:17:08;;;;;;;15.13;13.53;;;;;;;;;;7361374;19;20014;-82
2023/06/22 06:19:33;;;;;;;16.70;12.60;;;;;;;;;;7364751;19;20014;-83
2023/06/22 06:21:59;;;;;;;14.32;12.82;;;;;;;;;;7356726;19;20420;-83
2023/06/22 06:24:24;;;;;;;17.98;13.30;;;;;;;;;;7360924;19;20007;-80
2023/06/22 06:26:49;;;;;;;16.17;13.35;;;;;;;;;;7359421;19;20066;-81
2023/06/22 06:29:16;;;;;;;15.00;11.97;;;;;;;;;;7354186;19;20009;-82
2023/06/22 06:31:41;;;;;;;18.48;13.00;;;;;;;;;;7354164;19;20110;-79
2023/06/22 06:34:06;;;;;;;16.40;12.83;;;;;;;;;;7330240;19;20882;-80
2023/06/22 06:36:31;;;;;;;17.63;13.00;;;;;;;;;;7344763;19;20030;-82
2023/06/22 06:38:56;;;;;;;14.87;12.13;;;;;;;;;;7317402;19;20010;-80
2023/06/22 06:41:22;;;;;;;15.52;12.13;;;;;;;;;;7357134;19;20026;-82
2023/06/22 06:43:48;;;;;;;16.10;13.10;;;;;;;;;;7348511;19;20126;-81
2023/06/22 06:46:13;;;;;;;16.17;12.77;;;;;;;;;;7364422;19;19998;-80
2023/06/22 06:48:39;;;;;;;16.85;13.18;;;;;;;;;;7364407;19;20086;-78
2023/06/22 06:51:05;;;;;;;17.48;13.27;;;;;;;;;;7365098;19;20015;-81
2023/06/22 06:53:30;;;;;;;15.90;12.30;;;;;;;;;;7343575;19;20010;-78
2023/06/22 06:55:55;;;;;;;19.67;13.13;;;;;;;;;;7359027;19;20047;-81
2023/06/22 06:58:20;;;;;;;18.00;11.67;;;;;;;;;;7351813;19;20279;-83
2023/06/22 07:00:45;;;;;;;16.25;12.38;;;;;;;;;;7341439;19;20011;-81
2023/06/22 07:03:11;;;;;;;13.90;12.13;;;;;;;;;;7363433;19;20010;-79
2023/06/22 07:05:36;;;;;;;15.00;12.27;;;;;;;;;;7360248;19;22534;-79
2023/06/22 07:08:01;;;;;;;14.83;11.50;;;;;;;;;;7355136;19;20377;-82
2023/06/22 07:10:27;;;;;;;16.42;12.57;;;;;;;;;;7363459;19;20877;-81
2023/06/22 07:12:52;;;;;;;17.30;12.70;;;;;;;;;;7363300;19;20410;-82
2023/06/22 07:15:17;;;;;;;14.83;11.87;;;;;;;;;;7360078;19;20003;-80
2023/06/22 07:17:42;;;;;;;15.30;10.87;;;;;;;;;;7362941;19;20284;-78
2023/06/22 07:20:11;;;;;;;15.80;12.37;;;;;;;;;;7364400;19;20284;-78
2023/06/22 07:22:41;;;;;;;17.20;11.05;;;;;;;;;;7356119;19;20315;-79
2023/06/22 07:25:09;;;;;;;14.48;11.48;;;;;;;;;;7369799;19;20010;-82
2023/06/22 07:27:44;;;;;;;13.95;10.93;;;;;;;;;;7362563;19;20015;-82
2023/06/22 07:30:10;;;;;;;16.70;11.73;;;;;;;;;;7318193;19;21075;-82
2023/06/22 07:32:35;;;;;;;13.43;10.77;;;;;;;;;;7356141;19;20026;-80
2023/06/22 07:35:01;;;;;;;15.98;11.55;;;;;;;;;;7359648;19;20653;-80
2023/06/22 07:37:27;;;;;;;15.80;11.15;;;;;;;;;;7365556;19;20015;-82
2023/06/22 07:39:53;;;;;;;15.63;11.88;;;;;;;;;;7360174;19;20010;-83
2023/06/22 07:42:19;;;;;;;18.45;12.32;;;;;;;;;;7358454;19;20558;-81
2023/06/22 07:44:44;;;;;;;15.57;12.13;;;;;;;;;;7355063;19;20014;-81
2023/06/22 07:47:09;;;;;;;14.73;11.90;;;;;;;;;;7364436;19;20006;-83
2023/06/22 07:49:34;;;;;;;16.40;12.63;;;;;;;;;;7366642;19;20480;-81
2023/06/22 07:52:01;;;;;;;17.50;13.33;;;;;;;;;;7355706;19;20103;-81
2023/06/22 07:54:26;;;;;;;20.20;12.70;;;;;;;;;;7356964;19;20053;-82
2023/06/22 07:56:51;;;;;;;20.23;13.80;;;;;;;;;;7357879;19;20404;-86
2023/06/22 07:59:16;;;;;;;16.88;13.95;;;;;;;;;;7343382;19;20010;-85
2023/06/22 08:01:42;;;;;;;19.37;14.20;;;;;;;;;;7354140;19;20014;-79
2023/06/22 08:04:08;;;;;;;20.00;14.25;;;;;;;;;;7359886;19;20613;-81
2023/06/22 08:06:33;;;;;;;18.13;13.80;;;;;;;;;;7366472;19;20499;-84
2023/06/22 08:08:58;;;;;;;16.73;13.77;;;;;;;;;;7357828;19;20018;-82
2023/06/22 08:11:25;;;;;;;18.65;13.50;;;;;;;;;;7363049;19;20010;-79
2023/06/22 08:13:50;;;;;;;16.95;14.23;;;;;;;;;;7344394;19;20018;-80
2023/06/22 08:16:15;;;;;;;16.60;13.65;;;;;;;;;;7366647;19;20022;-89
2023/06/22 08:18:40;;;;;;;18.97;14.87;;;;;;;;;;7365894;19;20003;-86
2023/06/22 08:21:05;;;;;;;19.40;14.00;;;;;;;;;;7357695;19;20037;-85
2023/06/22 08:23:31;;;;;;;18.15;13.65;;;;;;;;;;7363153;19;20082;-82
2023/06/22 08:25:56;;;;;;;14.88;13.15;;;;;;;;;;7351912;19;20407;-84
2023/06/22 08:28:21;;;;;;;17.17;14.20;;;;;;;;;;7346432;19;20075;-86
2023/06/22 08:30:46;;;;;;;18.83;14.40;;;;;;;;;;7358035;19;21134;-80
2023/06/22 08:33:12;;;;;;;18.27;13.20;;;;;;;;;;7351136;19;20010;-85
2023/06/22 08:35:38;;;;;;;16.92;13.52;;;;;;;;;;7355812;19;20002;-81
2023/06/22 08:38:03;;;;;;;16.05;13.95;;;;;;;;;;7358635;19;22372;-83
2023/06/22 08:40:29;;;;;;;18.42;13.65;;;;;;;;;;7365652;19;20386;-88
2023/06/22 08:42:54;;;;;;;18.42;13.25;;;;;;;;;;7358810;19;20021;-84
2023/06/22 08:45:19;;;;;;;17.73;12.57;;;;;;;;;;7354857;19;20604;-83
2023/06/22 08:47:44;;;;;;;16.23;12.53;;;;;;;;;;7357294;19;20089;-80
2023/06/22 08:50:11;;;;;;;19.37;11.47;;;;;;;;;;7368793;19;20006;-84
2023/06/22 08:52:37;;;;;;;15.20;11.60;;;;;;;;;;7362974;19;20272;-82
2023/06/22 08:55:02;;;;;;;15.45;11.48;;;;;;;;;;7361776;19;20014;-82
2023/06/22 08:57:27;;;;;;;14.20;11.55;;;;;;;;;;7363174;19;20007;-81
2023/06/22 08:59:53;;;;;;;15.30;11.13;;;;;;;;;;7350659;19;20010;-81
2023/06/22 09:02:19;;;;;;;14.55;10.98;;;;;;;;;;7360383;19;20014;-83
2023/06/22 09:04:45;;;;;;;13.73;10.65;;;;;;;;;;7367042;19;20047;-84
2023/06/22 09:07:11;;;;;;;14.07;10.48;;;;;;;;;;7364358;19;20010;-84
2023/06/22 09:09:36;;;;;;;16.92;11.43;;;;;;;;;;7360877;19;20045;-81
2023/06/22 09:12:02;;;;;;;16.20;10.32;;;;;;;;;;7355600;19;20002;-79
2023/06/22 09:14:27;;;;;;;13.93;11.47;;;;;;;;;;7358722;19;20087;-78
2023/06/22 09:16:52;;;;;;;14.48;10.95;;;;;;;;;;7357678;19;21217;-81
2023/06/22 09:19:17;;;;;;;15.43;11.53;;;;;;;;;;7346199;19;20015;-78
2023/06/22 09:21:42;;;;;;;17.30;11.67;;;;;;;;;;7346397;19;20026;-85
2023/06/22 09:24:08;;;;;;;16.57;12.97;;;;;;;;;;7354844;19;20264;-84
2023/06/22 09:26:33;;;;;;;19.95;14.20;;;;;;;;;;7359596;19;20047;-84
2023/06/22 09:28:58;;;;;;;16.73;13.57;;;;;;;;;;7352577;19;20010;-82
2023/06/22 09:31:25;;;;;;;20.00;15.93;;;;;;;;;;7363174;19;20017;-82
2023/06/22 09:33:50;;;;;;;23.50;16.65;;;;;;;;;;7362391;19;20025;-79
2023/06/22 09:36:16;;;;;;;21.17;16.23;;;;;;;;;;7361159;19;20284;-80
2023/06/22 09:38:42;;;;;;;22.05;18.65;;;;;;;;;;7361632;19;20052;-79
2023/06/22 09:41:07;;;;;;;26.30;19.93;;;;;;;;;;7361020;19;20348;-82
2023/06/22 09:43:35;;;;;;;27.75;19.70;;;;;;;;;;7361056;19;20075;-86
2023/06/22 09:46:01;;;;;;;26.25;20.70;;;;;;;;;;7357355;19;20128;-83
2023/06/22 09:48:27;;;;;;;28.92;21.05;;;;;;;;;;7365672;19;20070;-84
2023/06/22 09:50:52;;;;;;;33.90;23.30;;;;;;;;;;7341053;19;20102;-84
2023/06/22 09:53:17;;;;;;;13.48;11.07;;;;;;;;;;7355920;19;20267;-86
2023/06/22 09:55:42;;;;;;;14.60;11.85;;;;;;;;;;7363574;19;20003;-86
2023/06/22 09:58:08;;;;;;;17.00;14.07;;;;;;;;;;7352750;19;20983;-81
2023/06/22 10:00:33;;;;;;;16.95;13.45;;;;;;;;;;7366288;19;20068;-88
2023/06/22 10:02:58;;;;;;;17.35;12.77;;;;;;;;;;7358070;19;21092;-90
2023/06/22 10:05:25;;;;;;;18.60;15.52;;;;;;;;;;7368724;19;20014;-84
2023/06/22 10:07:50;;;;;;;15.70;13.52;;;;;;;;;;7361121;19;20013;-87
2023/06/22 10:10:15;;;;;;;15.75;12.95;;;;;;;;;;7364401;19;20011;-84
2023/06/22 10:12:42;;;;;;;17.75;14.55;;;;;;;;;;7360815;19;20006;-85
2023/06/22 10:15:07;;;;;;;18.15;14.32;;;;;;;;;;7352531;19;20014;-84
2023/06/22 10:17:32;;;;;;;18.27;13.90;;;;;;;;;;7368168;19;20007;-86
2023/06/22 10:19:57;;;;;;;21.63;14.93;;;;;;;;;;7355653;19;20011;-85
2023/06/22 10:22:22;;;;;;;23.23;16.83;;;;;;;;;;7358759;19;20301;-85
2023/06/22 10:24:48;;;;;;;21.85;15.70;;;;;;;;;;7364050;19;20619;-86
2023/06/22 10:27:13;;;;;;;24.85;16.38;;;;;;;;;;7364926;19;20019;-88
2023/06/22 10:29:38;;;;;;;24.83;18.08;;;;;;;;;;7367235;19;20014;-86
2023/06/22 10:32:04;;;;;;;23.90;17.92;;;;;;;;;;7367363;19;20014;-85
2023/06/22 10:34:29;;;;;;;22.58;17.77;;;;;;;;;;7373520;19;20031;-85
2023/06/22 10:36:54;;;;;;;22.97;20.23;;;;;;;;;;7355252;19;20014;-81
2023/06/22 10:39:19;;;;;;;21.23;16.70;;;;;;;;;;7362931;19;20006;-85
2023/06/22 10:41:44;;;;;;;16.57;14.27;;;;;;;;;;7351223;19;20019;-81
2023/06/22 10:44:10;;;;;;;16.58;12.13;;;;;;;;;;7318239;19;21229;-79
2023/06/22 10:46:35;;;;;;;14.25;8.73;;;;;;;;;;7364878;19;20006;-80
2023/06/22 10:49:01;;;;;;;9.80;8.17;;;;;;;;;;7355398;19;19995;-83
2023/06/22 10:51:27;;;;;;;12.97;9.17;;;;;;;;;;7370018;19;20057;-83
2023/06/22 10:53:53;;;;;;;11.07;8.80;;;;;;;;;;7318238;19;20011;-83
2023/06/22 10:56:18;;;;;;;12.98;9.43;;;;;;;;;;7358174;19;20018;-80
2023/06/22 10:58:44;;;;;;;12.68;10.23;;;;;;;;;;7356434;19;20010;-83
2023/06/22 11:01:09;;;;;;;15.15;10.65;;;;;;;;;;7359077;19;20046;-84
2023/06/22 11:03:34;;;;;;;15.03;10.97;;;;;;;;;;7365955;19;20003;-84
2023/06/22 11:05:59;;;;;;;14.25;10.80;;;;;;;;;;7359238;19;20022;-79
2023/06/22 11:08:25;;;;;;;14.52;10.93;;;;;;;;;;7370296;19;20006;-80
2023/06/22 11:10:51;;;;;;;13.03;10.53;;;;;;;;;;7358386;19;20378;-84
2023/06/22 11:13:16;;;;;;;16.15;10.80;;;;;;;;;;7358419;19;20296;-88
2023/06/22 11:15:41;;;;;;;12.60;9.98;;;;;;;;;;7360424;19;20115;-85
2023/06/22 11:18:07;;;;;;;13.82;10.25;;;;;;;;;;7365239;19;20018;-89
2023/06/22 11:20:34;;;;;;;11.70;8.85;;;;;;;;;;7364599;19;20006;-85
2023/06/22 11:22:59;;;;;;;13.23;8.90;;;;;;;;;;7352911;19;21317;-82
2023/06/22 11:25:25;;;;;;;11.43;8.43;;;;;;;;;;7327262;19;20016;-82
2023/06/22 11:27:51;;;;;;;11.97;8.57;;;;;;;;;;7356554;19;20286;-83
2023/06/22 11:30:16;;;;;;;11.55;8.27;;;;;;;;;;7349236;19;20003;-86
2023/06/22 11:32:41;;;;;;;11.75;8.32;;;;;;;;;;7365803;19;20045;-84
2023/06/22 11:35:06;;;;;;;11.57;8.23;;;;;;;;;;7353887;19;20011;-83
2023/06/22 11:37:32;;;;;;;10.45;8.82;;;;;;;;;;7368764;19;20401;-87
2023/06/22 11:39:58;;;;;;;11.45;9.02;;;;;;;;;;7363669;19;20557;-81
2023/06/22 11:42:23;;;;;;;12.18;8.80;;;;;;;;;;7361633;19;20428;-83
2023/06/22 11:44:48;;;;;;;12.15;8.23;;;;;;;;;;7356999;19;20030;-82
2023/06/22 11:47:13;;;;;;;11.82;8.77;;;;;;;;;;7366029;19;20007;-85
2023/06/22 11:49:39;;;;;;;10.07;8.10;;;;;;;;;;7365316;19;20066;-87
2023/06/22 11:52:05;;;;;;;12.88;9.05;;;;;;;;;;7357500;19;20010;-88
2023/06/22 11:54:30;;;;;;;14.65;9.75;;;;;;;;;;7349774;19;20009;-84
2023/06/22 11:56:55;;;;;;;15.87;10.50;;;;;;;;;;7371306;19;20039;-86
2023/06/22 11:59:22;;;;;;;12.02;9.98;;;;;;;;;;7355437;19;20354;-87
2023/06/22 12:01:47;;;;;;;15.80;10.15;;;;;;;;;;7365033;19;20292;-89
2023/06/22 12:04:12;;;;;;;13.00;10.30;;;;;;;;;;7365144;19;20006;-85
2023/06/22 12:06:38;;;;;;;14.32;10.10;;;;;;;;;;7363911;19;20006;-87
2023/06/22 12:09:04;;;;;;;14.05;10.50;;;;;;;;;;7366473;19;20202;-81
2023/06/22 12:11:29;;;;;;;16.98;10.35;;;;;;;;;;7365023;19;20483;-88
2023/06/22 12:13:54;;;;;;;15.17;11.20;;;;;;;;;;7332113;19;20428;-82
2023/06/22 12:16:21;;;;;;;13.53;10.63;;;;;;;;;;7364072;19;20013;-89
2023/06/22 12:18:46;;;;;;;13.70;10.30;;;;;;;;;;7370126;19;20011;-83
2023/06/22 12:21:11;;;;;;;18.30;9.82;;;;;;;;;;7350934;19;22163;-84
2023/06/22 12:23:37;;;;;;;15.15;11.75;;;;;;;;;;7360247;19;20006;-82
2023/06/22 12:26:02;;;;;;;14.93;11.97;;;;;;;;;;7363615;19;20336;-85
2023/06/22 12:28:27;;;;;;;13.77;10.93;;;;;;;;;;7363006;19;20011;-84
2023/06/22 12:30:52;;;;;;;15.17;10.87;;;;;;;;;;7368505;19;20028;-85
2023/06/22 12:33:17;;;;;;;16.07;11.13;;;;;;;;;;7359538;19;20074;-83
2023/06/22 12:35:45;;;;;;;13.63;10.83;;;;;;;;;;7358819;19;20003;-84
2023/06/22 12:38:10;;;;;;;18.65;11.07;;;;;;;;;;7356919;19;20021;-87
2023/06/22 12:40:35;;;;;;;17.67;11.03;;;;;;;;;;7368989;19;20597;-84
2023/06/22 12:43:02;;;;;;;13.73;10.67;;;;;;;;;;7356347;19;20275;-85
2023/06/22 12:45:28;;;;;;;13.90;10.75;;;;;;;;;;7353909;19;20460;-84
2023/06/22 12:47:53;;;;;;;13.77;10.60;;;;;;;;;;7362300;19;20010;-82
2023/06/22 12:50:19;;;;;;;14.07;10.73;;;;;;;;;;7361671;19;20072;-82
2023/06/22 12:52:44;;;;;;;12.93;10.43;;;;;;;;;;7362738;19;20007;-83
2023/06/22 12:55:09;;;;;;;14.20;10.90;;;;;;;;;;7353873;19;20027;-82
2023/06/22 12:57:34;;;;;;;17.80;10.98;;;;;;;;;;7369939;19;20066;-85
2023/06/22 13:00:00;;;;;;;15.27;10.23;;;;;;;;;;7361306;19;20006;-81
2023/06/22 13:02:26;;;;;;;15.02;11.25;;;;;;;;;;7358131;19;21094;-85
2023/06/22 13:04:51;;;;;;;13.80;10.23;;;;;;;;;;7367596;19;20018;-84
2023/06/22 13:07:16;;;;;;;16.70;11.50;;;;;;;;;;7352710;19;20002;-79
2023/06/22 13:09:41;;;;;;;12.47;10.40;;;;;;;;;;7341675;19;20359;-81
2023/06/22 13:12:07;;;;;;;15.70;11.40;;;;;;;;;;7357263;19;20137;-81
2023/06/22 13:14:32;;;;;;;16.20;12.20;;;;;;;;;;7357813;19;20018;-82
2023/06/22 13:16:57;;;;;;;17.00;11.55;;;;;;;;;;7362471;19;20075;-83
2023/06/22 13:19:22;;;;;;;12.82;11.27;;;;;;;;;;7356047;19;20015;-82
2023/06/22 13:21:47;;;;;;;16.97;11.30;;;;;;;;;;7356176;19;20013;-81
2023/06/22 13:24:13;;;;;;;19.07;11.87;;;;;;;;;;7348933;19;20007;-84
2023/06/22 13:26:38;;;;;;;14.17;11.43;;;;;;;;;;7361129;19;20006;-82
2023/06/22 13:29:03;;;;;;;16.15;12.20;;;;;;;;;;7360307;19;20006;-80
2023/06/22 13:31:28;;;;;;;15.80;11.35;;;;;;;;;;7362260;19;20033;-82
2023/06/22 13:33:53;;;;;;;15.80;11.97;;;;;;;;;;7366152;19;20054;-85
2023/06/22 13:36:19;;;;;;;14.33;11.77;;;;;;;;;;7355199;19;20006;-82
2023/06/22 13:38:44;;;;;;;20.77;13.55;;;;;;;;;;7357671;19;20010;-83
2023/06/22 13:41:09;;;;;;;19.25;14.48;;;;;;;;;;7359070;19;20017;-80
2023/06/22 13:43:35;;;;;;;19.27;13.37;;;;;;;;;;7354453;19;20010;-82
2023/06/22 13:46:00;;;;;;;15.77;13.50;;;;;;;;;;7355051;19;20386;-82
2023/06/22 13:48:25;;;;;;;16.73;13.47;;;;;;;;;;7360062;19;20858;-82
2023/06/22 13:50:51;;;;;;;15.45;12.52;;;;;;;;;;7358779;19;20021;-82
2023/06/22 13:53:16;;;;;;;16.65;12.35;;;;;;;;;;7353491;19;20579;-84
2023/06/22 13:55:41;;;;;;;17.57;12.70;;;;;;;;;;7367462;19;20010;-85
2023/06/22 13:58:06;;;;;;;17.43;13.90;;;;;;;;;;7357269;19;20306;-83
2023/06/22 14:00:32;;;;;;;16.63;12.40;;;;;;;;;;7364393;19;20042;-86
2023/06/22 14:02:57;;;;;;;15.20;13.03;;;;;;;;;;7366785;19;20015;-84
2023/06/22 14:05:22;;;;;;;17.17;12.77;;;;;;;;;;7360521;19;20272;-84
2023/06/22 14:07:47;;;;;;;16.55;12.57;;;;;;;;;;7366937;19;20027;-81
2023/06/22 14:10:12;;;;;;;18.13;13.03;;;;;;;;;;7356719;19;20054;-86
2023/06/22 14:12:37;;;;;;;18.37;13.97;;;;;;;;;;7363366;19;20131;-81
2023/06/22 14:15:03;;;;;;;23.52;15.75;;;;;;;;;;7334710;19;20156;-84